aviador You're here:

KSBA Decoded Metar

SANTA BARBARA in CA, USA
Report Time2017-09-23 19:53:00
UTC Time2017-09-23 20:06:40
Flight Rules vfr VFR
Wind190° at 06 kt
W.Decomp.*RWY 15: 5.4 kt HW 2.6 kt RCW
RWY 25: 1.7 kt HW 5.8 kt LCW
W.Rank190° ranks 30
Current wind is above 190° avg. (5.2)
Visibility9999 m
Phenomena:N/A
Clouds:N/A
Expected CloudBase > 3,600 ft AGL from Temp-Dew spread
CeilingNone
Temp22°C (ISA +7)
Dew Point13°C (57% RH)
AAT20.8°C
QNH1011 hPa
Density Alt1,096 ft
Elevation10 ft
Report Wrong Elevation
Raw Report
METAR KSBA 231953Z 19006KT 10SM CLR 22/13 A2986 RMK AO2 SLP111 T02220133=

Extra information for KSBA:More info

Metar Taf Metar & Taf Last 4 Metars F.Rules Stats Wind Profile Meteogram Temp Stats Airport Information Weather charts Add Link Nearby VenuesMetar ALERT Operation Metar Decoded Social comments

AIRNAV info for KSBA